sensor_id;sensor_type;location;lat;lon;timestamp;pressure;altitude;pressure_sealevel;temperature;humidity
75701;BME280;64321;48.796;44.740;2022-12-07T00:02:36;103687.75;;;-9.96;60.52
75701;BME280;64321;48.796;44.740;2022-12-07T00:07:38;103687.44;;;-9.86;60.14
75701;BME280;64321;48.796;44.740;2022-12-07T00:12:41;103685.84;;;-10.00;60.60
75701;BME280;64321;48.796;44.740;2022-12-07T00:17:43;103694.00;;;-10.07;60.42
75701;BME280;64321;48.796;44.740;2022-12-07T00:22:45;103686.50;;;-10.21;60.73
75701;BME280;64321;48.796;44.740;2022-12-07T00:27:48;103675.97;;;-10.10;60.86
75701;BME280;64321;48.796;44.740;2022-12-07T00:32:50;103671.44;;;-9.82;60.09
75701;BME280;64321;48.796;44.740;2022-12-07T00:37:53;103663.09;;;-9.96;60.03
75701;BME280;64321;48.796;44.740;2022-12-07T00:42:55;103667.00;;;-10.02;60.81
75701;BME280;64321;48.796;44.740;2022-12-07T00:47:57;103666.44;;;-9.97;60.36
75701;BME280;64321;48.796;44.740;2022-12-07T00:53:00;103659.28;;;-10.04;60.37
75701;BME280;64321;48.796;44.740;2022-12-07T00:58:03;103651.66;;;-10.02;60.44
75701;BME280;64321;48.796;44.740;2022-12-07T01:03:07;103665.97;;;-10.06;60.70
75701;BME280;64321;48.796;44.740;2022-12-07T01:08:10;103658.59;;;-9.84;60.09
75701;BME280;64321;48.796;44.740;2022-12-07T01:13:13;103657.16;;;-9.78;59.74
75701;BME280;64321;48.796;44.740;2022-12-07T01:18:17;103646.53;;;-9.70;59.56
75701;BME280;64321;48.796;44.740;2022-12-07T01:23:20;103655.63;;;-9.75;59.26
75701;BME280;64321;48.796;44.740;2022-12-07T01:28:22;103650.91;;;-9.67;59.01
75701;BME280;64321;48.796;44.740;2022-12-07T01:33:30;103658.28;;;-9.90;58.93
75701;BME280;64321;48.796;44.740;2022-12-07T01:38:33;103662.13;;;-10.14;59.85
75701;BME280;64321;48.796;44.740;2022-12-07T01:43:36;103656.84;;;-10.01;60.00
75701;BME280;64321;48.796;44.740;2022-12-07T01:48:41;103659.38;;;-10.19;59.77
75701;BME280;64321;48.796;44.740;2022-12-07T01:53:45;103659.88;;;-10.26;59.80
75701;BME280;64321;48.796;44.740;2022-12-07T01:58:48;103663.59;;;-10.19;59.90
75701;BME280;64321;48.796;44.740;2022-12-07T02:03:52;103667.88;;;-10.18;59.04
75701;BME280;64321;48.796;44.740;2022-12-07T02:08:55;103667.38;;;-10.29;59.85
75701;BME280;64321;48.796;44.740;2022-12-07T02:13:57;103663.84;;;-10.47;59.83
75701;BME280;64321;48.796;44.740;2022-12-07T02:19:54;103652.38;;;-10.39;59.65
75701;BME280;64321;48.796;44.740;2022-12-07T02:30:17;103655.31;;;-10.47;59.09
75701;BME280;64321;48.796;44.740;2022-12-07T02:40:51;103657.13;;;-10.61;59.62
75701;BME280;64321;48.796;44.740;2022-12-07T02:46:13;103653.38;;;-10.52;59.40
75701;BME280;64321;48.796;44.740;2022-12-07T02:51:19;103656.00;;;-10.50;58.71
75701;BME280;64321;48.796;44.740;2022-12-07T02:56:39;103654.31;;;-10.66;59.01
75701;BME280;64321;48.796;44.740;2022-12-07T03:08:06;103669.13;;;-10.44;59.16
75701;BME280;64321;48.796;44.740;2022-12-07T03:18:20;103666.75;;;-10.56;58.95
75701;BME280;64321;48.796;44.740;2022-12-07T03:23:25;103675.97;;;-10.59;59.17
75701;BME280;64321;48.796;44.740;2022-12-07T03:28:34;103669.31;;;-10.56;59.28
75701;BME280;64321;48.796;44.740;2022-12-07T03:39:36;103672.63;;;-10.58;59.50
75701;BME280;64321;48.796;44.740;2022-12-07T03:44:18;103676.84;;;-10.59;59.64
75701;BME280;64321;48.796;44.740;2022-12-07T03:49:23;103667.88;;;-10.67;59.40
75701;BME280;64321;48.796;44.740;2022-12-07T03:54:51;103661.00;;;-10.68;59.40
75701;BME280;64321;48.796;44.740;2022-12-07T03:59:57;103655.25;;;-10.80;59.83
75701;BME280;64321;48.796;44.740;2022-12-07T04:05:01;103679.59;;;-10.70;60.00
75701;BME280;64321;48.796;44.740;2022-12-07T04:10:04;103669.28;;;-10.72;60.07
75701;BME280;64321;48.796;44.740;2022-12-07T04:15:08;103676.50;;;-10.65;59.64
75701;BME280;64321;48.796;44.740;2022-12-07T04:20:11;103668.50;;;-10.71;59.88
75701;BME280;64321;48.796;44.740;2022-12-07T04:25:14;103680.84;;;-10.47;59.15
75701;BME280;64321;48.796;44.740;2022-12-07T04:30:16;103680.22;;;-10.43;58.86
75701;BME280;64321;48.796;44.740;2022-12-07T04:35:19;103685.06;;;-10.32;58.42
75701;BME280;64321;48.796;44.740;2022-12-07T04:40:21;103691.47;;;-10.40;58.60
75701;BME280;64321;48.796;44.740;2022-12-07T04:45:23;103689.31;;;-10.32;58.58
75701;BME280;64321;48.796;44.740;2022-12-07T04:50:26;103700.94;;;-10.37;58.50
75701;BME280;64321;48.796;44.740;2022-12-07T04:55:28;103703.00;;;-10.14;58.10
75701;BME280;64321;48.796;44.740;2022-12-07T05:00:31;103706.91;;;-10.22;57.61
75701;BME280;64321;48.796;44.740;2022-12-07T05:05:33;103713.00;;;-10.35;58.08
75701;BME280;64321;48.796;44.740;2022-12-07T05:10:36;103719.94;;;-10.48;57.98
75701;BME280;64321;48.796;44.740;2022-12-07T05:15:40;103711.31;;;-10.34;58.29
75701;BME280;64321;48.796;44.740;2022-12-07T05:20:44;103708.09;;;-10.63;58.50
75701;BME280;64321;48.796;44.740;2022-12-07T05:25:47;103710.22;;;-10.70;58.00
75701;BME280;64321;48.796;44.740;2022-12-07T05:30:50;103731.56;;;-10.54;57.71
75701;BME280;64321;48.796;44.740;2022-12-07T05:36:00;103723.25;;;-10.66;57.89
75701;BME280;64321;48.796;44.740;2022-12-07T05:41:09;103730.16;;;-10.48;57.38
75701;BME280;64321;48.796;44.740;2022-12-07T05:46:34;103728.09;;;-10.39;57.44
75701;BME280;64321;48.796;44.740;2022-12-07T05:51:37;103713.81;;;-10.67;57.61
75701;BME280;64321;48.796;44.740;2022-12-07T05:56:39;103720.59;;;-10.36;57.08
75701;BME280;64321;48.796;44.740;2022-12-07T06:01:42;103717.41;;;-10.32;57.67
75701;BME280;64321;48.796;44.740;2022-12-07T06:06:45;103720.75;;;-10.33;57.26
75701;BME280;64321;48.796;44.740;2022-12-07T06:11:48;103722.28;;;-10.21;56.96
75701;BME280;64321;48.796;44.740;2022-12-07T06:17:09;103724.91;;;-10.35;57.27
75701;BME280;64321;48.796;44.740;2022-12-07T06:22:12;103726.19;;;-10.27;57.51
75701;BME280;64321;48.796;44.740;2022-12-07T06:27:15;103738.31;;;-10.07;56.93
75701;BME280;64321;48.796;44.740;2022-12-07T06:32:17;103731.84;;;-10.00;57.11
75701;BME280;64321;48.796;44.740;2022-12-07T06:37:20;103742.81;;;-9.70;56.39
75701;BME280;64321;48.796;44.740;2022-12-07T06:42:22;103745.34;;;-9.70;56.41
75701;BME280;64321;48.796;44.740;2022-12-07T06:47:25;103737.84;;;-9.67;56.71
75701;BME280;64321;48.796;44.740;2022-12-07T06:52:47;103738.28;;;-9.42;56.15
75701;BME280;64321;48.796;44.740;2022-12-07T06:57:49;103723.09;;;-9.39;56.41
75701;BME280;64321;48.796;44.740;2022-12-07T07:02:52;103726.25;;;-9.27;56.83
75701;BME280;64321;48.796;44.740;2022-12-07T07:07:55;103716.91;;;-9.08;56.43
75701;BME280;64321;48.796;44.740;2022-12-07T07:13:27;103724.97;;;-8.83;56.51
75701;BME280;64321;48.796;44.740;2022-12-07T07:18:30;103710.56;;;-8.81;56.30
75701;BME280;64321;48.796;44.740;2022-12-07T07:23:33;103709.59;;;-8.83;56.63
75701;BME280;64321;48.796;44.740;2022-12-07T07:28:35;103709.47;;;-8.86;56.29
75701;BME280;64321;48.796;44.740;2022-12-07T07:33:45;103702.81;;;-8.83;56.41
75701;BME280;64321;48.796;44.740;2022-12-07T07:38:48;103695.53;;;-8.56;56.46
75701;BME280;64321;48.796;44.740;2022-12-07T07:43:50;103681.31;;;-8.49;55.53
75701;BME280;64321;48.796;44.740;2022-12-07T07:48:53;103679.94;;;-8.22;55.48
75701;BME280;64321;48.796;44.740;2022-12-07T07:53:56;103672.97;;;-8.26;54.85
75701;BME280;64321;48.796;44.740;2022-12-07T07:58:58;103675.47;;;-8.08;55.11
75701;BME280;64321;48.796;44.740;2022-12-07T08:04:01;103670.84;;;-7.96;54.31
75701;BME280;64321;48.796;44.740;2022-12-07T08:09:04;103656.06;;;-8.01;54.64
75701;BME280;64321;48.796;44.740;2022-12-07T08:14:07;103642.38;;;-8.21;54.83
75701;BME280;64321;48.796;44.740;2022-12-07T08:19:12;103645.56;;;-8.08;55.07
75701;BME280;64321;48.796;44.740;2022-12-07T08:24:14;103643.03;;;-7.87;54.43
75701;BME280;64321;48.796;44.740;2022-12-07T08:29:17;103625.66;;;-7.52;53.94
75701;BME280;64321;48.796;44.740;2022-12-07T08:34:20;103624.03;;;-7.50;53.89
75701;BME280;64321;48.796;44.740;2022-12-07T08:39:23;103618.16;;;-7.27;53.64
75701;BME280;64321;48.796;44.740;2022-12-07T08:44:33;103605.44;;;-7.24;53.31
75701;BME280;64321;48.796;44.740;2022-12-07T08:49:40;103593.38;;;-7.04;53.35
75701;BME280;64321;48.796;44.740;2022-12-07T08:54:44;103599.72;;;-6.94;53.49
75701;BME280;64321;48.796;44.740;2022-12-07T08:59:47;103582.81;;;-6.89;53.10
75701;BME280;64321;48.796;44.740;2022-12-07T09:04:49;103583.63;;;-6.90;52.79
75701;BME280;64321;48.796;44.740;2022-12-07T09:09:52;103580.88;;;-6.95;53.14
75701;BME280;64321;48.796;44.740;2022-12-07T09:14:55;103583.25;;;-6.77;53.10
75701;BME280;64321;48.796;44.740;2022-12-07T09:19:57;103570.22;;;-6.59;52.93
75701;BME280;64321;48.796;44.740;2022-12-07T09:25:01;103559.88;;;-6.37;52.25
75701;BME280;64321;48.796;44.740;2022-12-07T09:30:05;103561.22;;;-6.48;52.61
75701;BME280;64321;48.796;44.740;2022-12-07T09:35:08;103559.34;;;-6.28;52.30
75701;BME280;64321;48.796;44.740;2022-12-07T09:40:13;103547.19;;;-6.33;52.21
75701;BME280;64321;48.796;44.740;2022-12-07T09:45:35;103552.97;;;-6.14;52.14
75701;BME280;64321;48.796;44.740;2022-12-07T09:50:39;103540.53;;;-6.27;51.60
75701;BME280;64321;48.796;44.740;2022-12-07T09:55:42;103533.19;;;-6.41;52.15
75701;BME280;64321;48.796;44.740;2022-12-07T10:00:46;103535.25;;;-6.05;51.59
75701;BME280;64321;48.796;44.740;2022-12-07T10:05:51;103536.34;;;-6.24;51.68
75701;BME280;64321;48.796;44.740;2022-12-07T10:10:55;103512.00;;;-6.08;51.99
75701;BME280;64321;48.796;44.740;2022-12-07T10:15:58;103525.28;;;-6.21;52.00
75701;BME280;64321;48.796;44.740;2022-12-07T10:31:29;103521.00;;;-5.69;51.17
75701;BME280;64321;48.796;44.740;2022-12-07T10:41:35;103509.31;;;-5.59;50.50
75701;BME280;64321;48.796;44.740;2022-12-07T10:47:08;103506.94;;;-5.51;50.31
75701;BME280;64321;48.796;44.740;2022-12-07T11:03:35;103494.91;;;-5.52;50.50
75701;BME280;64321;48.796;44.740;2022-12-07T11:14:18;103479.56;;;-5.49;49.83
75701;BME280;64321;48.796;44.740;2022-12-07T11:19:49;103463.44;;;-5.71;50.01
75701;BME280;64321;48.796;44.740;2022-12-07T11:30:22;103474.50;;;-5.46;49.80
75701;BME280;64321;48.796;44.740;2022-12-07T11:36:00;103463.69;;;-5.63;49.88
75701;BME280;64321;48.796;44.740;2022-12-07T11:41:05;103447.94;;;-5.74;50.05
75701;BME280;64321;48.796;44.740;2022-12-07T11:46:18;103474.72;;;-5.67;50.05
75701;BME280;64321;48.796;44.740;2022-12-07T11:51:22;103468.06;;;-5.61;50.17
75701;BME280;64321;48.796;44.740;2022-12-07T11:56:30;103474.16;;;-5.58;50.24
75701;BME280;64321;48.796;44.740;2022-12-07T12:06:43;103467.34;;;-5.83;50.84
75701;BME280;64321;48.796;44.740;2022-12-07T12:23:22;103461.94;;;-6.19;51.48
75701;BME280;64321;48.796;44.740;2022-12-07T12:28:41;103470.69;;;-6.14;51.40
75701;BME280;64321;48.796;44.740;2022-12-07T12:33:59;103473.81;;;-6.23;51.83
75701;BME280;64321;48.796;44.740;2022-12-07T12:55:16;103463.03;;;-6.63;52.51
75701;BME280;64321;48.796;44.740;2022-12-07T13:00:23;103478.38;;;-6.65;52.40
75701;BME280;64321;48.796;44.740;2022-12-07T13:05:31;103470.38;;;-6.73;52.74
75701;BME280;64321;48.796;44.740;2022-12-07T13:10:42;103469.38;;;-7.02;53.89
75701;BME280;64321;48.796;44.740;2022-12-07T13:26:39;103479.78;;;-7.43;55.18
75701;BME280;64321;48.796;44.740;2022-12-07T13:36:45;103467.41;;;-7.76;54.95
75701;BME280;64321;48.796;44.740;2022-12-07T13:41:58;103476.00;;;-7.96;55.45
75701;BME280;64321;48.796;44.740;2022-12-07T13:52:30;103484.06;;;-8.28;55.50
75701;BME280;64321;48.796;44.740;2022-12-07T13:57:34;103481.63;;;-8.46;55.82
75701;BME280;64321;48.796;44.740;2022-12-07T14:02:55;103478.50;;;-8.39;55.71
75701;BME280;64321;48.796;44.740;2022-12-07T14:08:24;103492.91;;;-8.43;55.78
75701;BME280;64321;48.796;44.740;2022-12-07T14:19:44;103493.81;;;-8.41;55.20
75701;BME280;64321;48.796;44.740;2022-12-07T14:24:50;103494.09;;;-8.54;55.77
75701;BME280;64321;48.796;44.740;2022-12-07T14:29:53;103498.34;;;-8.54;56.12
75701;BME280;64321;48.796;44.740;2022-12-07T14:34:58;103503.22;;;-8.60;56.48
75701;BME280;64321;48.796;44.740;2022-12-07T14:40:05;103503.03;;;-8.65;56.44
75701;BME280;64321;48.796;44.740;2022-12-07T14:45:15;103502.06;;;-8.67;56.79
75701;BME280;64321;48.796;44.740;2022-12-07T14:50:20;103502.75;;;-8.71;56.89
75701;BME280;64321;48.796;44.740;2022-12-07T14:55:28;103499.66;;;-8.83;56.78
75701;BME280;64321;48.796;44.740;2022-12-07T15:00:31;103502.09;;;-8.86;56.88
75701;BME280;64321;48.796;44.740;2022-12-07T15:05:34;103507.88;;;-8.90;56.97
75701;BME280;64321;48.796;44.740;2022-12-07T15:10:37;103514.00;;;-8.87;56.64
75701;BME280;64321;48.796;44.740;2022-12-07T15:21:15;103524.59;;;-8.98;56.96
75701;BME280;64321;48.796;44.740;2022-12-07T15:26:18;103517.03;;;-9.15;57.45
75701;BME280;64321;48.796;44.740;2022-12-07T15:31:20;103526.16;;;-9.20;57.53
75701;BME280;64321;48.796;44.740;2022-12-07T15:36:43;103518.03;;;-9.29;57.69
75701;BME280;64321;48.796;44.740;2022-12-07T15:41:45;103517.94;;;-9.32;57.98
75701;BME280;64321;48.796;44.740;2022-12-07T15:46:48;103523.03;;;-9.32;58.31
75701;BME280;64321;48.796;44.740;2022-12-07T15:51:51;103522.31;;;-9.47;58.37
75701;BME280;64321;48.796;44.740;2022-12-07T15:56:54;103519.97;;;-9.42;58.16
75701;BME280;64321;48.796;44.740;2022-12-07T16:01:57;103527.41;;;-9.47;58.45
75701;BME280;64321;48.796;44.740;2022-12-07T16:07:00;103531.16;;;-9.40;58.41
75701;BME280;64321;48.796;44.740;2022-12-07T16:12:02;103539.25;;;-9.49;58.55
75701;BME280;64321;48.796;44.740;2022-12-07T16:17:06;103542.34;;;-9.56;59.17
75701;BME280;64321;48.796;44.740;2022-12-07T16:22:09;103542.66;;;-9.50;58.51
75701;BME280;64321;48.796;44.740;2022-12-07T16:27:12;103546.56;;;-9.39;58.40
75701;BME280;64321;48.796;44.740;2022-12-07T16:32:14;103519.34;;;-9.56;58.20
75701;BME280;64321;48.796;44.740;2022-12-07T16:37:16;103546.00;;;-9.51;58.37
75701;BME280;64321;48.796;44.740;2022-12-07T16:42:19;103547.75;;;-9.50;58.75
75701;BME280;64321;48.796;44.740;2022-12-07T16:47:21;103543.44;;;-9.51;58.31
75701;BME280;64321;48.796;44.740;2022-12-07T16:52:24;103537.09;;;-9.59;58.72
75701;BME280;64321;48.796;44.740;2022-12-07T16:57:26;103537.66;;;-9.65;58.10
75701;BME280;64321;48.796;44.740;2022-12-07T17:02:29;103546.19;;;-9.64;58.15
75701;BME280;64321;48.796;44.740;2022-12-07T17:07:31;103548.63;;;-9.67;58.03
75701;BME280;64321;48.796;44.740;2022-12-07T17:12:34;103533.00;;;-9.73;58.45
75701;BME280;64321;48.796;44.740;2022-12-07T17:17:36;103539.72;;;-9.58;58.25
75701;BME280;64321;48.796;44.740;2022-12-07T17:22:38;103541.16;;;-9.63;58.32
75701;BME280;64321;48.796;44.740;2022-12-07T17:27:42;103527.88;;;-9.73;58.24
75701;BME280;64321;48.796;44.740;2022-12-07T17:32:45;103540.81;;;-9.70;58.82
75701;BME280;64321;48.796;44.740;2022-12-07T17:37:47;103519.25;;;-9.75;58.50
75701;BME280;64321;48.796;44.740;2022-12-07T17:42:52;103516.78;;;-9.74;58.75
75701;BME280;64321;48.796;44.740;2022-12-07T17:47:54;103526.94;;;-9.75;58.86
75701;BME280;64321;48.796;44.740;2022-12-07T17:52:57;103516.75;;;-9.92;58.96
75701;BME280;64321;48.796;44.740;2022-12-07T17:58:14;103523.03;;;-9.85;58.90
75701;BME280;64321;48.796;44.740;2022-12-07T18:03:16;103514.69;;;-9.99;59.12
75701;BME280;64321;48.796;44.740;2022-12-07T18:08:19;103513.41;;;-10.08;59.65
75701;BME280;64321;48.796;44.740;2022-12-07T18:13:25;103512.50;;;-10.09;59.75
75701;BME280;64321;48.796;44.740;2022-12-07T18:18:40;103499.91;;;-10.06;59.18
75701;BME280;64321;48.796;44.740;2022-12-07T18:23:48;103500.22;;;-10.16;59.61
75701;BME280;64321;48.796;44.740;2022-12-07T18:28:51;103505.22;;;-10.19;59.25
75701;BME280;64321;48.796;44.740;2022-12-07T18:33:54;103505.72;;;-10.08;58.96
75701;BME280;64321;48.796;44.740;2022-12-07T18:38:57;103501.56;;;-10.24;59.32
75701;BME280;64321;48.796;44.740;2022-12-07T18:44:02;103515.88;;;-10.10;59.50
75701;BME280;64321;48.796;44.740;2022-12-07T18:49:06;103508.44;;;-10.05;59.08
75701;BME280;64321;48.796;44.740;2022-12-07T18:54:09;103494.56;;;-10.10;59.14
75701;BME280;64321;48.796;44.740;2022-12-07T18:59:12;103502.13;;;-10.12;58.90
75701;BME280;64321;48.796;44.740;2022-12-07T19:04:34;103500.22;;;-10.16;59.07
75701;BME280;64321;48.796;44.740;2022-12-07T19:09:36;103490.75;;;-10.01;59.04
75701;BME280;64321;48.796;44.740;2022-12-07T19:14:39;103497.19;;;-10.09;59.07
75701;BME280;64321;48.796;44.740;2022-12-07T19:19:43;103497.03;;;-9.94;58.67
75701;BME280;64321;48.796;44.740;2022-12-07T19:24:53;103504.31;;;-10.02;59.21
75701;BME280;64321;48.796;44.740;2022-12-07T19:29:56;103495.84;;;-10.01;58.72
75701;BME280;64321;48.796;44.740;2022-12-07T19:34:59;103493.81;;;-10.08;58.57
75701;BME280;64321;48.796;44.740;2022-12-07T19:40:03;103495.44;;;-10.10;59.09
75701;BME280;64321;48.796;44.740;2022-12-07T19:45:06;103503.59;;;-10.17;59.04
75701;BME280;64321;48.796;44.740;2022-12-07T19:50:09;103497.47;;;-10.03;58.75
75701;BME280;64321;48.796;44.740;2022-12-07T19:55:11;103503.59;;;-9.99;58.71
75701;BME280;64321;48.796;44.740;2022-12-07T20:00:14;103498.94;;;-10.08;58.84
75701;BME280;64321;48.796;44.740;2022-12-07T20:05:17;103510.59;;;-10.13;58.64
75701;BME280;64321;48.796;44.740;2022-12-07T20:10:19;103496.00;;;-10.16;59.13
75701;BME280;64321;48.796;44.740;2022-12-07T20:15:27;103486.44;;;-10.20;58.82
75701;BME280;64321;48.796;44.740;2022-12-07T20:20:30;103493.19;;;-10.22;58.66
75701;BME280;64321;48.796;44.740;2022-12-07T20:25:34;103489.75;;;-10.22;58.95
75701;BME280;64321;48.796;44.740;2022-12-07T20:30:36;103475.78;;;-10.11;58.34
75701;BME280;64321;48.796;44.740;2022-12-07T20:35:39;103476.19;;;-10.21;58.44
75701;BME280;64321;48.796;44.740;2022-12-07T20:40:48;103487.13;;;-10.24;58.85
75701;BME280;64321;48.796;44.740;2022-12-07T20:45:51;103483.03;;;-10.20;58.93
75701;BME280;64321;48.796;44.740;2022-12-07T20:51:04;103472.22;;;-10.32;59.26
75701;BME280;64321;48.796;44.740;2022-12-07T20:56:07;103469.38;;;-10.55;59.21
75701;BME280;64321;48.796;44.740;2022-12-07T21:01:18;103474.97;;;-10.45;59.73
75701;BME280;64321;48.796;44.740;2022-12-07T21:06:21;103473.22;;;-10.46;59.14
75701;BME280;64321;48.796;44.740;2022-12-07T21:11:24;103481.63;;;-10.31;59.30
75701;BME280;64321;48.796;44.740;2022-12-07T21:16:29;103491.41;;;-10.40;59.58
75701;BME280;64321;48.796;44.740;2022-12-07T21:21:32;103491.75;;;-10.33;59.88
75701;BME280;64321;48.796;44.740;2022-12-07T21:26:35;103486.66;;;-10.33;59.34
75701;BME280;64321;48.796;44.740;2022-12-07T21:31:37;103478.19;;;-10.32;59.55
75701;BME280;64321;48.796;44.740;2022-12-07T21:36:40;103473.81;;;-10.34;59.92
75701;BME280;64321;48.796;44.740;2022-12-07T21:41:42;103477.56;;;-10.28;59.38
75701;BME280;64321;48.796;44.740;2022-12-07T21:46:45;103470.44;;;-10.33;59.52
75701;BME280;64321;48.796;44.740;2022-12-07T21:51:47;103472.72;;;-10.39;60.16
75701;BME280;64321;48.796;44.740;2022-12-07T21:56:50;103473.31;;;-10.61;60.57
75701;BME280;64321;48.796;44.740;2022-12-07T22:01:52;103471.84;;;-10.56;60.29
75701;BME280;64321;48.796;44.740;2022-12-07T22:06:55;103467.19;;;-10.65;60.31
75701;BME280;64321;48.796;44.740;2022-12-07T22:12:00;103472.88;;;-10.53;60.02
75701;BME280;64321;48.796;44.740;2022-12-07T22:17:03;103479.31;;;-10.61;60.24
75701;BME280;64321;48.796;44.740;2022-12-07T22:22:05;103460.63;;;-10.60;60.39
75701;BME280;64321;48.796;44.740;2022-12-07T22:27:08;103463.06;;;-10.79;60.20
75701;BME280;64321;48.796;44.740;2022-12-07T22:32:10;103460.97;;;-10.86;60.78
75701;BME280;64321;48.796;44.740;2022-12-07T22:37:33;103467.66;;;-10.88;60.66
75701;BME280;64321;48.796;44.740;2022-12-07T22:42:35;103472.78;;;-10.88;60.46
75701;BME280;64321;48.796;44.740;2022-12-07T22:47:38;103470.13;;;-10.90;60.25
75701;BME280;64321;48.796;44.740;2022-12-07T22:52:41;103464.94;;;-11.07;60.31
75701;BME280;64321;48.796;44.740;2022-12-07T22:57:44;103484.19;;;-11.14;61.33
75701;BME280;64321;48.796;44.740;2022-12-07T23:02:46;103489.22;;;-10.99;60.91
75701;BME280;64321;48.796;44.740;2022-12-07T23:07:49;103487.28;;;-11.03;60.65
75701;BME280;64321;48.796;44.740;2022-12-07T23:12:51;103487.81;;;-11.09;60.62
75701;BME280;64321;48.796;44.740;2022-12-07T23:18:12;103491.34;;;-11.07;61.01
75701;BME280;64321;48.796;44.740;2022-12-07T23:23:15;103487.28;;;-11.19;61.37
75701;BME280;64321;48.796;44.740;2022-12-07T23:28:18;103486.81;;;-11.12;60.88
75701;BME280;64321;48.796;44.740;2022-12-07T23:33:21;103490.63;;;-11.04;60.72
75701;BME280;64321;48.796;44.740;2022-12-07T23:38:25;103488.94;;;-11.20;60.87
75701;BME280;64321;48.796;44.740;2022-12-07T23:43:27;103480.56;;;-11.34;61.72
75701;BME280;64321;48.796;44.740;2022-12-07T23:48:30;103484.97;;;-11.46;61.29
75701;BME280;64321;48.796;44.740;2022-12-07T23:53:37;103498.06;;;-11.40;61.35
75701;BME280;64321;48.796;44.740;2022-12-07T23:58:40;103496.03;;;-11.31;61.33
